Terminal Aerodrome Forecast
Issued by NWS

Home | Current Version | Previous Version | Text Only | Print | Product List | Glossary On
Versions: 1 2 3 4 5 6 7 8 9 10 11 12 13 14 15 16 17 18
000
FTUS43 KGRR 260500
TAFAZO
TAF
KAZO 260540Z 2606/2706 03005KT P6SM BKN100
     FM261800 35009KT P6SM BKN050
     FM262100 33012G20KT P6SM BKN100=

USA.gov is the U.S. government's official web portal to all federal, state and local government web resources and services.